Hauptseite
METAR-TAF:

METAR-TAF

Flughäfen :

Malakula, Vanuatu

Breite: 16-27-26S, Länge: 167-49-42E, Höhe: 2 m

METAR: fehlend

Zeit: 08:18 (21:18 UTC)

Prognose

Neuester Wetterbericht von vor 4 Stunden und 18 Minuten, um 17:00 UTC
Gültige Prognose vom 15 um 18 UTC bis 16 um 18 UTC
Wind 9 kt aus Ost/Südost
Sichtweite: 9000 m
Durchbrochene Bewölkung in der Höhe von 2000 ft
Aufgelockert bewölkt in der Höhe von 1800 ft
Durchbrochene Bewölkung in der Höhe von 3800 ft
Regenschauer,

TAF: NVSL 151700Z 1518/1618 12009KT 9999 BKN020 INTER 1518/1524 9000 SHRA SCT018 BKN038

Wetterbeobachtungen und Prognosen von mehr als 4000 Flughäfen (METAR und TAF Bericht).

Die verfügbaren Stationen werden durch gelbe und rote Markierungen auf der Karte dargestellt.

Führen Sie die Maus auf sie, um den Namen der Station zu sehen.

Darauf klicken, um die Beobachtung von Wetterbeobachtungen und Prognosen zu sehen.

Um die Karte zu ändern : klicken Sie auf den grünen Tasten mit einem schwarzen Kreuz Zum Vergrößern, auf den grünen Button mit einem Gedankenstrich zu verkleinern, oder auf die grünen Pfeile für benachbarte Karten.


METAR-TAF: